sensor_id;sensor_type;location;lat;lon;timestamp;P1;durP1;ratioP1;P2;durP2;ratioP2
68365;SDS011;55283;51.466;5.478;2022-09-12T00:00:25;12.07;;;9.87;;
68365;SDS011;55283;51.466;5.478;2022-09-12T00:02:51;12.75;;;9.90;;
68365;SDS011;55283;51.466;5.478;2022-09-12T00:05:17;11.38;;;9.32;;
68365;SDS011;55283;51.466;5.478;2022-09-12T00:07:43;11.97;;;8.90;;
68365;SDS011;55283;51.466;5.478;2022-09-12T00:10:08;11.43;;;9.50;;
68365;SDS011;55283;51.466;5.478;2022-09-12T00:12:34;13.20;;;9.67;;
68365;SDS011;55283;51.466;5.478;2022-09-12T00:14:59;11.87;;;9.30;;
68365;SDS011;55283;51.466;5.478;2022-09-12T00:17:24;13.73;;;9.07;;
68365;SDS011;55283;51.466;5.478;2022-09-12T00:19:50;14.33;;;8.97;;
68365;SDS011;55283;51.466;5.478;2022-09-12T00:22:16;11.05;;;9.13;;
68365;SDS011;55283;51.466;5.478;2022-09-12T00:24:41;11.83;;;8.87;;
68365;SDS011;55283;51.466;5.478;2022-09-12T00:27:07;15.33;;;9.77;;
68365;SDS011;55283;51.466;5.478;2022-09-12T00:29:32;11.10;;;8.90;;
68365;SDS011;55283;51.466;5.478;2022-09-12T00:31:57;11.73;;;9.47;;
68365;SDS011;55283;51.466;5.478;2022-09-12T00:34:23;12.20;;;9.57;;
68365;SDS011;55283;51.466;5.478;2022-09-12T00:36:48;12.47;;;9.60;;
68365;SDS011;55283;51.466;5.478;2022-09-12T00:39:14;11.73;;;9.40;;
68365;SDS011;55283;51.466;5.478;2022-09-12T00:41:41;11.85;;;9.45;;
68365;SDS011;55283;51.466;5.478;2022-09-12T00:46:49;12.50;;;9.35;;
68365;SDS011;55283;51.466;5.478;2022-09-12T00:52:04;10.93;;;9.25;;
68365;SDS011;55283;51.466;5.478;2022-09-12T00:54:36;12.50;;;9.30;;
68365;SDS011;55283;51.466;5.478;2022-09-12T00:57:07;11.88;;;9.90;;
68365;SDS011;55283;51.466;5.478;2022-09-12T00:59:39;12.13;;;9.75;;
68365;SDS011;55283;51.466;5.478;2022-09-12T01:02:07;12.10;;;9.07;;
68365;SDS011;55283;51.466;5.478;2022-09-12T01:04:34;12.18;;;9.80;;
68365;SDS011;55283;51.466;5.478;2022-09-12T01:07:01;12.82;;;10.13;;
68365;SDS011;55283;51.466;5.478;2022-09-12T01:09:28;13.63;;;10.03;;
68365;SDS011;55283;51.466;5.478;2022-09-12T01:11:54;16.05;;;10.32;;
68365;SDS011;55283;51.466;5.478;2022-09-12T01:14:20;12.17;;;9.70;;
68365;SDS011;55283;51.466;5.478;2022-09-12T01:16:46;13.90;;;10.05;;
68365;SDS011;55283;51.466;5.478;2022-09-12T01:38:35;13.67;;;10.27;;
68365;SDS011;55283;51.466;5.478;2022-09-12T01:43:36;12.82;;;10.30;;
68365;SDS011;55283;51.466;5.478;2022-09-12T01:46:14;15.23;;;10.83;;
68365;SDS011;55283;51.466;5.478;2022-09-12T01:49:25;12.95;;;10.18;;
68365;SDS011;55283;51.466;5.478;2022-09-12T01:51:34;13.65;;;10.35;;
68365;SDS011;55283;51.466;5.478;2022-09-12T01:54:43;12.90;;;10.43;;
68365;SDS011;55283;51.466;5.478;2022-09-12T01:57:12;12.63;;;9.73;;
68365;SDS011;55283;51.466;5.478;2022-09-12T01:59:44;12.18;;;10.48;;
68365;SDS011;55283;51.466;5.478;2022-09-12T02:02:15;12.32;;;10.40;;
68365;SDS011;55283;51.466;5.478;2022-09-12T02:04:50;14.30;;;10.17;;
68365;SDS011;55283;51.466;5.478;2022-09-12T02:07:30;12.70;;;10.63;;
68365;SDS011;55283;51.466;5.478;2022-09-12T02:10:19;13.68;;;9.85;;
68365;SDS011;55283;51.466;5.478;2022-09-12T02:12:57;13.90;;;10.47;;
68365;SDS011;55283;51.466;5.478;2022-09-12T02:16:11;14.73;;;10.18;;
68365;SDS011;55283;51.466;5.478;2022-09-12T02:18:20;13.65;;;10.48;;
68365;SDS011;55283;51.466;5.478;2022-09-12T02:20:46;13.97;;;10.40;;
68365;SDS011;55283;51.466;5.478;2022-09-12T02:23:18;12.70;;;10.15;;
68365;SDS011;55283;51.466;5.478;2022-09-12T02:25:47;13.13;;;10.45;;
68365;SDS011;55283;51.466;5.478;2022-09-12T02:28:17;13.00;;;10.63;;
68365;SDS011;55283;51.466;5.478;2022-09-12T02:36:35;13.30;;;10.63;;
68365;SDS011;55283;51.466;5.478;2022-09-12T02:39:01;13.25;;;10.63;;
68365;SDS011;55283;51.466;5.478;2022-09-12T02:41:27;14.20;;;10.98;;
68365;SDS011;55283;51.466;5.478;2022-09-12T02:43:52;13.03;;;10.37;;
68365;SDS011;55283;51.466;5.478;2022-09-12T02:46:23;13.93;;;10.57;;
68365;SDS011;55283;51.466;5.478;2022-09-12T02:48:52;16.80;;;10.73;;
68365;SDS011;55283;51.466;5.478;2022-09-12T02:51:19;14.82;;;11.23;;
68365;SDS011;55283;51.466;5.478;2022-09-12T02:53:45;12.50;;;10.57;;
68365;SDS011;55283;51.466;5.478;2022-09-12T02:56:13;13.10;;;10.18;;
68365;SDS011;55283;51.466;5.478;2022-09-12T02:58:45;13.47;;;10.83;;
68365;SDS011;55283;51.466;5.478;2022-09-12T03:06:50;12.63;;;10.23;;
68365;SDS011;55283;51.466;5.478;2022-09-12T03:12:00;15.55;;;11.10;;
68365;SDS011;55283;51.466;5.478;2022-09-12T03:22:52;15.88;;;11.25;;
68365;SDS011;55283;51.466;5.478;2022-09-12T03:25:42;14.40;;;11.00;;
68365;SDS011;55283;51.466;5.478;2022-09-12T03:28:16;15.60;;;11.52;;
68365;SDS011;55283;51.466;5.478;2022-09-12T03:30:44;15.73;;;11.52;;
68365;SDS011;55283;51.466;5.478;2022-09-12T03:33:13;16.07;;;11.50;;
68365;SDS011;55283;51.466;5.478;2022-09-12T03:35:40;14.60;;;11.00;;
68365;SDS011;55283;51.466;5.478;2022-09-12T03:38:06;13.53;;;11.30;;
68365;SDS011;55283;51.466;5.478;2022-09-12T03:40:35;14.05;;;11.00;;
68365;SDS011;55283;51.466;5.478;2022-09-12T03:43:01;14.55;;;11.40;;
68365;SDS011;55283;51.466;5.478;2022-09-12T03:45:26;14.93;;;11.60;;
68365;SDS011;55283;51.466;5.478;2022-09-12T03:47:52;16.60;;;11.23;;
68365;SDS011;55283;51.466;5.478;2022-09-12T03:50:17;17.00;;;11.33;;
68365;SDS011;55283;51.466;5.478;2022-09-12T03:52:43;14.23;;;11.00;;
68365;SDS011;55283;51.466;5.478;2022-09-12T03:55:08;14.40;;;11.30;;
68365;SDS011;55283;51.466;5.478;2022-09-12T03:57:33;14.48;;;11.15;;
68365;SDS011;55283;51.466;5.478;2022-09-12T03:59:59;16.40;;;11.23;;
68365;SDS011;55283;51.466;5.478;2022-09-12T04:02:26;12.77;;;10.82;;
68365;SDS011;55283;51.466;5.478;2022-09-12T04:04:52;15.45;;;10.77;;
68365;SDS011;55283;51.466;5.478;2022-09-12T04:07:18;16.20;;;11.23;;
68365;SDS011;55283;51.466;5.478;2022-09-12T04:09:43;13.63;;;10.80;;
68365;SDS011;55283;51.466;5.478;2022-09-12T04:12:09;16.08;;;10.40;;
68365;SDS011;55283;51.466;5.478;2022-09-12T04:14:34;13.13;;;10.87;;
68365;SDS011;55283;51.466;5.478;2022-09-12T04:17:00;14.67;;;10.60;;
68365;SDS011;55283;51.466;5.478;2022-09-12T04:19:26;13.82;;;10.88;;
68365;SDS011;55283;51.466;5.478;2022-09-12T04:21:52;14.23;;;10.93;;
68365;SDS011;55283;51.466;5.478;2022-09-12T04:24:17;13.30;;;10.57;;
68365;SDS011;55283;51.466;5.478;2022-09-12T04:26:43;15.13;;;11.03;;
68365;SDS011;55283;51.466;5.478;2022-09-12T04:29:11;13.40;;;10.70;;
68365;SDS011;55283;51.466;5.478;2022-09-12T04:31:39;14.60;;;10.77;;
68365;SDS011;55283;51.466;5.478;2022-09-12T04:34:05;14.60;;;10.63;;
68365;SDS011;55283;51.466;5.478;2022-09-12T04:36:31;13.20;;;10.13;;
68365;SDS011;55283;51.466;5.478;2022-09-12T04:38:58;16.45;;;10.57;;
68365;SDS011;55283;51.466;5.478;2022-09-12T04:41:29;15.52;;;10.85;;
68365;SDS011;55283;51.466;5.478;2022-09-12T04:43:58;14.53;;;10.63;;
68365;SDS011;55283;51.466;5.478;2022-09-12T04:46:29;14.95;;;10.55;;
68365;SDS011;55283;51.466;5.478;2022-09-12T04:48:56;13.90;;;10.43;;
68365;SDS011;55283;51.466;5.478;2022-09-12T04:51:26;16.43;;;10.37;;
68365;SDS011;55283;51.466;5.478;2022-09-12T04:54:00;14.10;;;10.60;;
68365;SDS011;55283;51.466;5.478;2022-09-12T04:56:28;15.02;;;10.05;;
68365;SDS011;55283;51.466;5.478;2022-09-12T04:58:58;13.32;;;10.50;;
68365;SDS011;55283;51.466;5.478;2022-09-12T05:01:25;16.97;;;10.17;;
68365;SDS011;55283;51.466;5.478;2022-09-12T05:03:52;13.30;;;10.00;;
68365;SDS011;55283;51.466;5.478;2022-09-12T05:06:19;14.23;;;10.25;;
68365;SDS011;55283;51.466;5.478;2022-09-12T05:08:48;15.93;;;10.63;;
68365;SDS011;55283;51.466;5.478;2022-09-12T05:11:16;14.57;;;11.05;;
68365;SDS011;55283;51.466;5.478;2022-09-12T05:13:43;14.32;;;11.43;;
68365;SDS011;55283;51.466;5.478;2022-09-12T05:16:12;15.73;;;11.73;;
68365;SDS011;55283;51.466;5.478;2022-09-12T05:18:39;15.07;;;9.77;;
68365;SDS011;55283;51.466;5.478;2022-09-12T05:21:06;13.73;;;9.87;;
68365;SDS011;55283;51.466;5.478;2022-09-12T05:23:33;13.13;;;10.70;;
68365;SDS011;55283;51.466;5.478;2022-09-12T05:25:59;13.48;;;10.15;;
68365;SDS011;55283;51.466;5.478;2022-09-12T05:28:30;14.68;;;9.90;;
68365;SDS011;55283;51.466;5.478;2022-09-12T05:31:03;12.97;;;9.87;;
68365;SDS011;55283;51.466;5.478;2022-09-12T05:33:29;13.07;;;9.55;;
68365;SDS011;55283;51.466;5.478;2022-09-12T05:35:55;12.68;;;9.85;;
68365;SDS011;55283;51.466;5.478;2022-09-12T05:38:21;12.03;;;8.87;;
68365;SDS011;55283;51.466;5.478;2022-09-12T05:40:49;13.07;;;9.40;;
68365;SDS011;55283;51.466;5.478;2022-09-12T05:43:14;12.67;;;9.13;;
68365;SDS011;55283;51.466;5.478;2022-09-12T05:45:40;12.05;;;9.10;;
68365;SDS011;55283;51.466;5.478;2022-09-12T05:48:06;11.57;;;8.93;;
68365;SDS011;55283;51.466;5.478;2022-09-12T05:50:31;13.23;;;8.95;;
68365;SDS011;55283;51.466;5.478;2022-09-12T05:52:57;15.50;;;9.50;;
68365;SDS011;55283;51.466;5.478;2022-09-12T05:55:22;15.27;;;9.40;;
68365;SDS011;55283;51.466;5.478;2022-09-12T05:57:48;12.30;;;9.07;;
68365;SDS011;55283;51.466;5.478;2022-09-12T06:00:14;11.97;;;9.03;;
68365;SDS011;55283;51.466;5.478;2022-09-12T06:02:40;13.48;;;9.00;;
68365;SDS011;55283;51.466;5.478;2022-09-12T06:05:06;11.80;;;8.10;;
68365;SDS011;55283;51.466;5.478;2022-09-12T06:07:32;16.80;;;9.50;;
68365;SDS011;55283;51.466;5.478;2022-09-12T06:09:57;19.40;;;9.38;;
68365;SDS011;55283;51.466;5.478;2022-09-12T06:12:23;14.10;;;9.93;;
68365;SDS011;55283;51.466;5.478;2022-09-12T06:14:50;17.85;;;10.52;;
68365;SDS011;55283;51.466;5.478;2022-09-12T06:17:16;15.47;;;11.53;;
68365;SDS011;55283;51.466;5.478;2022-09-12T06:19:42;16.58;;;11.20;;
68365;SDS011;55283;51.466;5.478;2022-09-12T06:22:08;14.80;;;10.60;;
68365;SDS011;55283;51.466;5.478;2022-09-12T06:24:34;18.70;;;11.40;;
68365;SDS011;55283;51.466;5.478;2022-09-12T06:26:59;15.77;;;12.17;;
68365;SDS011;55283;51.466;5.478;2022-09-12T06:29:26;15.98;;;11.43;;
68365;SDS011;55283;51.466;5.478;2022-09-12T06:31:52;17.63;;;11.80;;
68365;SDS011;55283;51.466;5.478;2022-09-12T06:34:17;14.63;;;10.73;;
68365;SDS011;55283;51.466;5.478;2022-09-12T06:36:47;17.20;;;11.23;;
68365;SDS011;55283;51.466;5.478;2022-09-12T06:39:17;14.43;;;11.55;;
68365;SDS011;55283;51.466;5.478;2022-09-12T06:41:46;14.45;;;11.23;;
68365;SDS011;55283;51.466;5.478;2022-09-12T06:44:14;17.10;;;11.53;;
68365;SDS011;55283;51.466;5.478;2022-09-12T06:46:42;17.25;;;10.70;;
68365;SDS011;55283;51.466;5.478;2022-09-12T06:49:08;15.63;;;11.13;;
68365;SDS011;55283;51.466;5.478;2022-09-12T06:51:33;17.13;;;10.63;;
68365;SDS011;55283;51.466;5.478;2022-09-12T06:54:00;16.90;;;11.15;;
68365;SDS011;55283;51.466;5.478;2022-09-12T06:56:26;13.77;;;10.32;;
68365;SDS011;55283;51.466;5.478;2022-09-12T06:58:52;12.87;;;9.20;;
68365;SDS011;55283;51.466;5.478;2022-09-12T07:03:54;9.25;;;7.75;;
68365;SDS011;55283;51.466;5.478;2022-09-12T07:06:21;10.70;;;7.77;;
68365;SDS011;55283;51.466;5.478;2022-09-12T07:08:53;12.35;;;7.53;;
68365;SDS011;55283;51.466;5.478;2022-09-12T07:11:20;10.47;;;6.90;;
68365;SDS011;55283;51.466;5.478;2022-09-12T07:13:48;11.52;;;7.22;;
68365;SDS011;55283;51.466;5.478;2022-09-12T07:16:15;11.15;;;6.47;;
68365;SDS011;55283;51.466;5.478;2022-09-12T07:18:41;11.73;;;6.83;;
68365;SDS011;55283;51.466;5.478;2022-09-12T07:21:09;10.57;;;6.90;;
68365;SDS011;55283;51.466;5.478;2022-09-12T07:23:36;8.52;;;6.65;;
68365;SDS011;55283;51.466;5.478;2022-09-12T07:26:04;9.77;;;5.13;;
68365;SDS011;55283;51.466;5.478;2022-09-12T07:28:30;9.00;;;5.63;;
68365;SDS011;55283;51.466;5.478;2022-09-12T07:30:57;6.18;;;5.15;;
68365;SDS011;55283;51.466;5.478;2022-09-12T07:33:28;9.82;;;4.90;;
68365;SDS011;55283;51.466;5.478;2022-09-12T07:35:54;6.77;;;4.83;;
68365;SDS011;55283;51.466;5.478;2022-09-12T07:38:20;6.40;;;4.67;;
68365;SDS011;55283;51.466;5.478;2022-09-12T07:40:45;7.22;;;5.07;;
68365;SDS011;55283;51.466;5.478;2022-09-12T07:43:11;8.10;;;4.80;;
68365;SDS011;55283;51.466;5.478;2022-09-12T07:45:36;6.80;;;4.83;;
68365;SDS011;55283;51.466;5.478;2022-09-12T07:48:05;7.50;;;5.22;;
68365;SDS011;55283;51.466;5.478;2022-09-12T07:50:30;6.57;;;5.00;;
68365;SDS011;55283;51.466;5.478;2022-09-12T07:52:55;7.03;;;5.03;;
68365;SDS011;55283;51.466;5.478;2022-09-12T07:55:21;7.67;;;5.30;;
68365;SDS011;55283;51.466;5.478;2022-09-12T07:57:50;5.73;;;4.27;;
68365;SDS011;55283;51.466;5.478;2022-09-12T08:00:16;5.60;;;4.40;;
68365;SDS011;55283;51.466;5.478;2022-09-12T08:02:42;6.13;;;4.70;;
68365;SDS011;55283;51.466;5.478;2022-09-12T08:05:07;5.43;;;4.23;;
68365;SDS011;55283;51.466;5.478;2022-09-12T08:07:33;6.60;;;4.45;;
68365;SDS011;55283;51.466;5.478;2022-09-12T08:09:59;5.40;;;3.93;;
68365;SDS011;55283;51.466;5.478;2022-09-12T08:12:24;4.90;;;3.73;;
68365;SDS011;55283;51.466;5.478;2022-09-12T08:14:51;5.90;;;4.00;;
68365;SDS011;55283;51.466;5.478;2022-09-12T08:17:17;5.70;;;3.80;;
68365;SDS011;55283;51.466;5.478;2022-09-12T08:19:42;5.18;;;3.78;;
68365;SDS011;55283;51.466;5.478;2022-09-12T08:22:09;4.10;;;3.50;;
68365;SDS011;55283;51.466;5.478;2022-09-12T08:24:35;4.35;;;3.70;;
68365;SDS011;55283;51.466;5.478;2022-09-12T08:27:01;5.95;;;3.60;;
68365;SDS011;55283;51.466;5.478;2022-09-12T08:29:26;5.77;;;3.30;;
68365;SDS011;55283;51.466;5.478;2022-09-12T08:31:51;4.40;;;3.20;;
68365;SDS011;55283;51.466;5.478;2022-09-12T08:34:17;4.60;;;3.30;;
68365;SDS011;55283;51.466;5.478;2022-09-12T08:36:43;5.35;;;3.60;;
68365;SDS011;55283;51.466;5.478;2022-09-12T08:39:10;4.18;;;3.22;;
68365;SDS011;55283;51.466;5.478;2022-09-12T08:41:43;4.63;;;3.33;;
68365;SDS011;55283;51.466;5.478;2022-09-12T08:53:02;5.35;;;3.25;;
68365;SDS011;55283;51.466;5.478;2022-09-12T08:55:39;3.72;;;3.15;;
68365;SDS011;55283;51.466;5.478;2022-09-12T08:58:12;3.30;;;3.00;;
68365;SDS011;55283;51.466;5.478;2022-09-12T09:00:57;4.20;;;3.25;;
68365;SDS011;55283;51.466;5.478;2022-09-12T09:11:51;3.92;;;3.05;;
68365;SDS011;55283;51.466;5.478;2022-09-12T09:17:33;3.90;;;3.13;;
68365;SDS011;55283;51.466;5.478;2022-09-12T09:23:05;4.55;;;2.95;;
68365;SDS011;55283;51.466;5.478;2022-09-12T09:31:20;3.58;;;3.05;;
68365;SDS011;55283;51.466;5.478;2022-09-12T09:33:48;3.10;;;2.80;;
68365;SDS011;55283;51.466;5.478;2022-09-12T09:36:22;3.10;;;2.80;;
68365;SDS011;55283;51.466;5.478;2022-09-12T09:38:55;3.10;;;2.80;;
68365;SDS011;55283;51.466;5.478;2022-09-12T09:44:27;3.37;;;2.73;;
68365;SDS011;55283;51.466;5.478;2022-09-12T09:46:54;3.80;;;2.90;;
68365;SDS011;55283;51.466;5.478;2022-09-12T09:49:22;3.33;;;2.70;;
68365;SDS011;55283;51.466;5.478;2022-09-12T09:51:49;3.13;;;2.60;;
68365;SDS011;55283;51.466;5.478;2022-09-12T09:56:44;3.58;;;2.67;;
68365;SDS011;55283;51.466;5.478;2022-09-12T09:59:10;3.37;;;2.63;;
68365;SDS011;55283;51.466;5.478;2022-09-12T10:01:51;3.63;;;2.80;;
68365;SDS011;55283;51.466;5.478;2022-09-12T10:04:28;3.47;;;2.45;;
68365;SDS011;55283;51.466;5.478;2022-09-12T10:06:56;2.73;;;2.40;;
68365;SDS011;55283;51.466;5.478;2022-09-12T10:09:25;3.95;;;2.65;;
68365;SDS011;55283;51.466;5.478;2022-09-12T10:11:51;3.22;;;2.60;;
68365;SDS011;55283;51.466;5.478;2022-09-12T10:16:59;3.93;;;2.80;;
68365;SDS011;55283;51.466;5.478;2022-09-12T10:19:33;5.07;;;2.60;;
68365;SDS011;55283;51.466;5.478;2022-09-12T10:22:03;5.05;;;3.03;;
68365;SDS011;55283;51.466;5.478;2022-09-12T10:24:35;3.60;;;2.87;;
68365;SDS011;55283;51.466;5.478;2022-09-12T10:29:43;2.70;;;2.50;;
68365;SDS011;55283;51.466;5.478;2022-09-12T10:34:52;9.13;;;2.80;;
68365;SDS011;55283;51.466;5.478;2022-09-12T10:37:25;3.28;;;2.60;;
68365;SDS011;55283;51.466;5.478;2022-09-12T10:39:56;3.38;;;2.70;;
68365;SDS011;55283;51.466;5.478;2022-09-12T10:45:20;4.82;;;3.13;;
68365;SDS011;55283;51.466;5.478;2022-09-12T10:47:53;5.25;;;2.90;;
68365;SDS011;55283;51.466;5.478;2022-09-12T10:52:54;2.97;;;2.70;;
68365;SDS011;55283;51.466;5.478;2022-09-12T10:55:37;4.25;;;2.80;;
68365;SDS011;55283;51.466;5.478;2022-09-12T10:58:09;3.47;;;2.63;;
68365;SDS011;55283;51.466;5.478;2022-09-12T11:00:46;3.60;;;2.55;;
68365;SDS011;55283;51.466;5.478;2022-09-12T11:03:31;2.60;;;2.40;;
68365;SDS011;55283;51.466;5.478;2022-09-12T11:06:01;2.60;;;2.28;;
68365;SDS011;55283;51.466;5.478;2022-09-12T11:11:53;2.67;;;2.30;;
68365;SDS011;55283;51.466;5.478;2022-09-12T11:14:13;3.53;;;2.72;;
68365;SDS011;55283;51.466;5.478;2022-09-12T11:16:57;3.80;;;2.40;;
68365;SDS011;55283;51.466;5.478;2022-09-12T11:19:46;3.30;;;2.40;;
68365;SDS011;55283;51.466;5.478;2022-09-12T11:28:06;3.63;;;2.30;;
68365;SDS011;55283;51.466;5.478;2022-09-12T11:30:49;7.93;;;2.60;;
68365;SDS011;55283;51.466;5.478;2022-09-12T11:33:28;6.30;;;2.60;;
68365;SDS011;55283;51.466;5.478;2022-09-12T11:36:35;3.80;;;2.33;;
68365;SDS011;55283;51.466;5.478;2022-09-12T11:39:23;3.07;;;2.13;;
68365;SDS011;55283;51.466;5.478;2022-09-12T11:42:03;2.63;;;2.10;;
68365;SDS011;55283;51.466;5.478;2022-09-12T11:44:38;2.15;;;1.95;;
68365;SDS011;55283;51.466;5.478;2022-09-12T11:47:11;5.50;;;2.40;;
68365;SDS011;55283;51.466;5.478;2022-09-12T11:49:45;5.03;;;2.37;;
68365;SDS011;55283;51.466;5.478;2022-09-12T11:52:15;2.55;;;2.35;;
68365;SDS011;55283;51.466;5.478;2022-09-12T11:57:27;2.93;;;2.60;;
68365;SDS011;55283;51.466;5.478;2022-09-12T12:00:03;2.90;;;2.47;;
68365;SDS011;55283;51.466;5.478;2022-09-12T12:02:39;2.85;;;2.50;;
68365;SDS011;55283;51.466;5.478;2022-09-12T12:05:20;4.10;;;2.47;;
68365;SDS011;55283;51.466;5.478;2022-09-12T12:10:23;4.30;;;2.40;;
68365;SDS011;55283;51.466;5.478;2022-09-12T12:12:50;2.65;;;2.35;;
68365;SDS011;55283;51.466;5.478;2022-09-12T12:15:18;3.00;;;2.70;;
68365;SDS011;55283;51.466;5.478;2022-09-12T12:17:58;2.72;;;2.40;;
68365;SDS011;55283;51.466;5.478;2022-09-12T12:20:25;2.65;;;2.35;;
68365;SDS011;55283;51.466;5.478;2022-09-12T12:22:52;2.40;;;2.20;;
68365;SDS011;55283;51.466;5.478;2022-09-12T12:35:44;3.00;;;2.50;;
68365;SDS011;55283;51.466;5.478;2022-09-12T12:38:34;3.35;;;2.20;;
68365;SDS011;55283;51.466;5.478;2022-09-12T12:43:51;2.50;;;2.30;;
68365;SDS011;55283;51.466;5.478;2022-09-12T12:46:22;2.70;;;2.30;;
68365;SDS011;55283;51.466;5.478;2022-09-12T12:53:47;2.92;;;2.35;;
68365;SDS011;55283;51.466;5.478;2022-09-12T12:59:13;4.17;;;2.30;;
68365;SDS011;55283;51.466;5.478;2022-09-12T13:01:46;2.30;;;2.10;;
68365;SDS011;55283;51.466;5.478;2022-09-12T13:04:24;4.25;;;2.38;;
68365;SDS011;55283;51.466;5.478;2022-09-12T13:07:01;3.07;;;2.17;;
68365;SDS011;55283;51.466;5.478;2022-09-12T13:09:34;2.67;;;2.47;;
68365;SDS011;55283;51.466;5.478;2022-09-12T13:12:11;2.50;;;2.28;;
68365;SDS011;55283;51.466;5.478;2022-09-12T13:19:47;2.95;;;2.22;;
68365;SDS011;55283;51.466;5.478;2022-09-12T13:22:14;3.15;;;2.05;;
68365;SDS011;55283;51.466;5.478;2022-09-12T13:24:43;3.13;;;2.30;;
68365;SDS011;55283;51.466;5.478;2022-09-12T13:27:16;3.13;;;2.25;;
68365;SDS011;55283;51.466;5.478;2022-09-12T13:29:46;2.92;;;2.10;;
68365;SDS011;55283;51.466;5.478;2022-09-12T13:32:12;2.40;;;2.20;;
68365;SDS011;55283;51.466;5.478;2022-09-12T13:34:50;3.28;;;2.20;;
68365;SDS011;55283;51.466;5.478;2022-09-12T13:37:48;3.15;;;2.17;;
68365;SDS011;55283;51.466;5.478;2022-09-12T13:41:01;4.00;;;2.30;;
68365;SDS011;55283;51.466;5.478;2022-09-12T13:43:36;2.30;;;2.10;;
68365;SDS011;55283;51.466;5.478;2022-09-12T13:46:05;3.53;;;2.30;;
68365;SDS011;55283;51.466;5.478;2022-09-12T13:48:32;2.20;;;1.93;;
68365;SDS011;55283;51.466;5.478;2022-09-12T13:51:01;2.40;;;2.20;;
68365;SDS011;55283;51.466;5.478;2022-09-12T13:53:30;3.08;;;2.20;;
68365;SDS011;55283;51.466;5.478;2022-09-12T13:56:02;2.10;;;2.00;;
68365;SDS011;55283;51.466;5.478;2022-09-12T13:58:28;2.08;;;1.88;;
68365;SDS011;55283;51.466;5.478;2022-09-12T14:03:38;2.10;;;1.90;;
68365;SDS011;55283;51.466;5.478;2022-09-12T14:06:52;3.92;;;1.95;;
68365;SDS011;55283;51.466;5.478;2022-09-12T14:09:24;3.05;;;2.15;;
68365;SDS011;55283;51.466;5.478;2022-09-12T14:11:52;2.10;;;1.90;;
68365;SDS011;55283;51.466;5.478;2022-09-12T14:14:30;2.50;;;2.20;;
68365;SDS011;55283;51.466;5.478;2022-09-12T14:16:56;2.25;;;2.08;;
68365;SDS011;55283;51.466;5.478;2022-09-12T14:19:22;5.00;;;1.93;;
68365;SDS011;55283;51.466;5.478;2022-09-12T14:21:51;2.20;;;2.00;;
68365;SDS011;55283;51.466;5.478;2022-09-12T14:24:21;2.10;;;1.90;;
68365;SDS011;55283;51.466;5.478;2022-09-12T14:26:48;2.50;;;1.80;;
68365;SDS011;55283;51.466;5.478;2022-09-12T14:29:16;5.03;;;1.90;;
68365;SDS011;55283;51.466;5.478;2022-09-12T14:31:43;3.47;;;2.17;;
68365;SDS011;55283;51.466;5.478;2022-09-12T14:36:41;2.67;;;1.98;;
68365;SDS011;55283;51.466;5.478;2022-09-12T14:42:17;2.43;;;2.23;;
68365;SDS011;55283;51.466;5.478;2022-09-12T14:44:55;3.75;;;2.25;;
68365;SDS011;55283;51.466;5.478;2022-09-12T14:47:23;3.92;;;2.50;;
68365;SDS011;55283;51.466;5.478;2022-09-12T14:49:51;7.15;;;3.00;;
68365;SDS011;55283;51.466;5.478;2022-09-12T14:52:28;4.27;;;2.60;;
68365;SDS011;55283;51.466;5.478;2022-09-12T14:55:01;3.33;;;2.05;;
68365;SDS011;55283;51.466;5.478;2022-09-12T14:57:33;5.25;;;2.30;;
68365;SDS011;55283;51.466;5.478;2022-09-12T15:02:36;2.60;;;2.00;;
68365;SDS011;55283;51.466;5.478;2022-09-12T15:13:03;2.20;;;2.00;;
68365;SDS011;55283;51.466;5.478;2022-09-12T15:15:34;2.25;;;2.00;;
68365;SDS011;55283;51.466;5.478;2022-09-12T15:18:01;3.28;;;2.05;;
68365;SDS011;55283;51.466;5.478;2022-09-12T15:20:26;2.27;;;1.90;;
68365;SDS011;55283;51.466;5.478;2022-09-12T15:22:52;3.10;;;1.87;;
68365;SDS011;55283;51.466;5.478;2022-09-12T15:25:17;3.42;;;2.28;;
68365;SDS011;55283;51.466;5.478;2022-09-12T15:27:44;3.27;;;1.87;;
68365;SDS011;55283;51.466;5.478;2022-09-12T15:30:10;2.20;;;1.83;;
68365;SDS011;55283;51.466;5.478;2022-09-12T15:32:37;2.40;;;2.10;;
68365;SDS011;55283;51.466;5.478;2022-09-12T15:35:08;5.05;;;1.90;;
68365;SDS011;55283;51.466;5.478;2022-09-12T15:37:40;6.03;;;2.10;;
68365;SDS011;55283;51.466;5.478;2022-09-12T15:40:05;2.97;;;1.87;;
68365;SDS011;55283;51.466;5.478;2022-09-12T15:42:32;6.47;;;2.00;;
68365;SDS011;55283;51.466;5.478;2022-09-12T15:44:57;2.67;;;2.00;;
68365;SDS011;55283;51.466;5.478;2022-09-12T15:47:24;2.88;;;1.92;;
68365;SDS011;55283;51.466;5.478;2022-09-12T15:49:50;6.20;;;2.00;;
68365;SDS011;55283;51.466;5.478;2022-09-12T15:52:15;2.40;;;1.80;;
68365;SDS011;55283;51.466;5.478;2022-09-12T15:54:41;3.03;;;1.90;;
68365;SDS011;55283;51.466;5.478;2022-09-12T15:57:07;2.97;;;1.90;;
68365;SDS011;55283;51.466;5.478;2022-09-12T15:59:33;2.13;;;1.50;;
68365;SDS011;55283;51.466;5.478;2022-09-12T16:01:59;3.50;;;1.88;;
68365;SDS011;55283;51.466;5.478;2022-09-12T16:04:25;2.00;;;1.70;;
68365;SDS011;55283;51.466;5.478;2022-09-12T16:06:52;3.93;;;1.80;;
68365;SDS011;55283;51.466;5.478;2022-09-12T16:09:19;1.80;;;1.70;;
68365;SDS011;55283;51.466;5.478;2022-09-12T16:11:45;2.10;;;1.83;;
68365;SDS011;55283;51.466;5.478;2022-09-12T16:14:12;2.43;;;1.63;;
68365;SDS011;55283;51.466;5.478;2022-09-12T16:16:38;2.47;;;2.00;;
68365;SDS011;55283;51.466;5.478;2022-09-12T16:19:04;2.58;;;1.85;;
68365;SDS011;55283;51.466;5.478;2022-09-12T16:21:30;3.53;;;2.00;;
68365;SDS011;55283;51.466;5.478;2022-09-12T16:23:56;2.43;;;2.00;;
68365;SDS011;55283;51.466;5.478;2022-09-12T16:26:21;2.10;;;1.80;;
68365;SDS011;55283;51.466;5.478;2022-09-12T16:28:47;3.13;;;1.97;;
68365;SDS011;55283;51.466;5.478;2022-09-12T16:31:17;2.53;;;1.90;;
68365;SDS011;55283;51.466;5.478;2022-09-12T16:33:43;2.23;;;1.90;;
68365;SDS011;55283;51.466;5.478;2022-09-12T16:36:09;2.70;;;2.10;;
68365;SDS011;55283;51.466;5.478;2022-09-12T16:38:40;2.85;;;1.95;;
68365;SDS011;55283;51.466;5.478;2022-09-12T16:41:07;3.22;;;1.90;;
68365;SDS011;55283;51.466;5.478;2022-09-12T16:43:33;3.00;;;1.87;;
68365;SDS011;55283;51.466;5.478;2022-09-12T16:46:03;2.75;;;2.13;;
68365;SDS011;55283;51.466;5.478;2022-09-12T16:48:31;2.53;;;2.10;;
68365;SDS011;55283;51.466;5.478;2022-09-12T16:50:57;2.83;;;1.95;;
68365;SDS011;55283;51.466;5.478;2022-09-12T16:53:25;2.85;;;2.08;;
68365;SDS011;55283;51.466;5.478;2022-09-12T16:55:53;1.87;;;1.73;;
68365;SDS011;55283;51.466;5.478;2022-09-12T16:58:19;2.40;;;1.80;;
68365;SDS011;55283;51.466;5.478;2022-09-12T17:00:44;2.30;;;2.07;;
68365;SDS011;55283;51.466;5.478;2022-09-12T17:03:10;1.90;;;1.80;;
68365;SDS011;55283;51.466;5.478;2022-09-12T17:05:35;2.50;;;1.85;;
68365;SDS011;55283;51.466;5.478;2022-09-12T17:08:01;2.13;;;1.83;;
68365;SDS011;55283;51.466;5.478;2022-09-12T17:10:27;2.30;;;1.73;;
68365;SDS011;55283;51.466;5.478;2022-09-12T17:12:54;2.20;;;2.00;;
68365;SDS011;55283;51.466;5.478;2022-09-12T17:15:20;2.10;;;1.65;;
68365;SDS011;55283;51.466;5.478;2022-09-12T17:17:46;1.97;;;1.80;;
68365;SDS011;55283;51.466;5.478;2022-09-12T17:20:11;2.23;;;1.73;;
68365;SDS011;55283;51.466;5.478;2022-09-12T17:22:36;1.90;;;1.80;;
68365;SDS011;55283;51.466;5.478;2022-09-12T17:25:02;3.87;;;1.80;;
68365;SDS011;55283;51.466;5.478;2022-09-12T17:27:27;2.20;;;1.90;;
68365;SDS011;55283;51.466;5.478;2022-09-12T17:29:53;1.80;;;1.70;;